sensor_id;sensor_type;location;lat;lon;timestamp;temperature;humidity
55054;DHT22;40954;45.668;18.980;2022-10-14T07:23:08;461.40;2380.80
55054;DHT22;40954;45.668;18.980;2022-10-14T07:25:34;461.30;2380.80
55054;DHT22;40954;45.668;18.980;2022-10-14T07:28:00;461.30;2380.80
55054;DHT22;40954;45.668;18.980;2022-10-14T07:30:26;461.30;2380.80
55054;DHT22;40954;45.668;18.980;2022-10-14T07:32:51;461.40;2380.80
55054;DHT22;40954;45.668;18.980;2022-10-14T07:35:18;461.50;2380.80
55054;DHT22;40954;45.668;18.980;2022-10-14T07:37:44;461.60;2380.80
55054;DHT22;40954;45.668;18.980;2022-10-14T07:40:10;461.60;2380.80
55054;DHT22;40954;45.668;18.980;2022-10-14T07:42:36;461.60;2380.80
55054;DHT22;40954;45.668;18.980;2022-10-14T07:45:03;461.70;2380.80
55054;DHT22;40954;45.668;18.980;2022-10-14T07:47:29;461.60;2380.80
55054;DHT22;40954;45.668;18.980;2022-10-14T07:49:54;461.60;2380.80
55054;DHT22;40954;45.668;18.980;2022-10-14T07:52:20;461.70;2380.80
55054;DHT22;40954;45.668;18.980;2022-10-14T07:54:46;461.70;2380.80
55054;DHT22;40954;45.668;18.980;2022-10-14T07:57:12;461.70;2380.80
55054;DHT22;40954;45.668;18.980;2022-10-14T07:59:38;486.40;2380.80
55054;DHT22;40954;45.668;18.980;2022-10-14T08:02:04;486.40;2380.80
55054;DHT22;40954;45.668;18.980;2022-10-14T08:04:30;486.40;2380.80
55054;DHT22;40954;45.668;18.980;2022-10-14T08:06:56;486.40;2380.80
55054;DHT22;40954;45.668;18.980;2022-10-14T08:09:21;486.40;2380.80
55054;DHT22;40954;45.668;18.980;2022-10-14T08:11:47;486.50;2380.80
55054;DHT22;40954;45.668;18.980;2022-10-14T08:14:13;461.70;2380.80
55054;DHT22;40954;45.668;18.980;2022-10-14T08:16:39;461.70;2380.80
55054;DHT22;40954;45.668;18.980;2022-10-14T08:19:09;461.70;2380.80
55054;DHT22;40954;45.668;18.980;2022-10-14T08:21:35;486.40;2380.80
55054;DHT22;40954;45.668;18.980;2022-10-14T08:24:01;486.60;2380.80
55054;DHT22;40954;45.668;18.980;2022-10-14T08:26:33;486.70;2380.80
55054;DHT22;40954;45.668;18.980;2022-10-14T08:29:04;486.80;2380.80
55054;DHT22;40954;45.668;18.980;2022-10-14T08:31:31;486.90;2380.80
55054;DHT22;40954;45.668;18.980;2022-10-14T08:33:57;486.90;2380.80
55054;DHT22;40954;45.668;18.980;2022-10-14T08:36:23;486.90;2380.80
55054;DHT22;40954;45.668;18.980;2022-10-14T08:38:51;487.00;2380.80
55054;DHT22;40954;45.668;18.980;2022-10-14T08:46:41;512.40;2380.80
55054;DHT22;40954;45.668;18.980;2022-10-14T08:52:03;512.70;2380.80
55054;DHT22;40954;45.668;18.980;2022-10-14T08:54:47;512.80;2380.80
55054;DHT22;40954;45.668;18.980;2022-10-14T08:57:17;537.70;2406.40
55054;DHT22;40954;45.668;18.980;2022-10-14T08:59:43;537.90;2406.40
55054;DHT22;40954;45.668;18.980;2022-10-14T09:02:53;538.00;2406.40
55054;DHT22;40954;45.668;18.980;2022-10-14T09:05:20;538.30;2406.40
55054;DHT22;40954;45.668;18.980;2022-10-14T09:07:48;563.20;2432.00
55054;DHT22;40954;45.668;18.980;2022-10-14T09:10:30;563.30;2432.00
55054;DHT22;40954;45.668;18.980;2022-10-14T09:13:02;563.30;2432.00
55054;DHT22;40954;45.668;18.980;2022-10-14T09:15:42;538.50;2406.40
